Time;durP1;ratioP1;P1;durP2;ratioP2;P2;SDS_P1;SDS_P2;PMS_P1;PMS_P2;Temp;Humidity;BMP_temperature;BMP_pressure;BME280_temperature;BME280_humidity;BME280_pressure;Samples;Min_cycle;Max_cycle;Signal;HPM_P1;HPM_P2
2023/09/16 00:01:25;;;;;;;29.90;22.60;;;16.80;99.90;;;;;;5085191;28;20045;-75
2023/09/16 00:03:51;;;;;;;30.77;21.63;;;16.80;99.90;;;;;;5075412;28;20022;-75
2023/09/16 00:06:16;;;;;;;29.20;23.02;;;16.70;99.90;;;;;;5080835;28;20391;-75
2023/09/16 00:08:43;;;;;;;32.22;23.27;;;16.70;99.90;;;;;;5076569;28;20059;-75
2023/09/16 00:11:10;;;;;;;33.30;23.60;;;16.70;99.90;;;;;;5072845;28;20021;-75
2023/09/16 00:13:36;;;;;;;30.02;22.98;;;16.70;99.90;;;;;;5073489;28;20041;-75
2023/09/16 00:16:02;;;;;;;36.00;23.58;;;16.70;99.90;;;;;;5082055;28;20107;-75
2023/09/16 00:18:28;;;;;;;34.30;23.77;;;16.70;99.90;;;;;;5086459;28;20499;-75
2023/09/16 00:20:53;;;;;;;31.25;23.77;;;16.60;99.90;;;;;;5090180;28;20019;-75
2023/09/16 00:23:19;;;;;;;35.58;24.33;;;16.60;99.90;;;;;;5087836;28;20095;-75
2023/09/16 00:25:53;;;;;;;33.08;24.13;;;16.60;99.90;;;;;;5085365;28;20082;-75
2023/09/16 00:28:19;;;;;;;32.47;24.17;;;16.60;99.90;;;;;;5082986;28;20043;-75
2023/09/16 00:30:45;;;;;;;35.17;24.48;;;16.60;99.90;;;;;;5086859;28;20028;-75
2023/09/16 00:33:11;;;;;;;33.97;23.63;;;16.60;99.90;;;;;;5075703;28;20023;-75
2023/09/16 00:35:36;;;;;;;31.70;24.23;;;16.50;99.90;;;;;;5085230;28;20095;-75
2023/09/16 00:38:02;;;;;;;38.83;27.92;;;16.60;99.90;;;;;;5070661;28;20096;-75
2023/09/16 00:40:28;;;;;;;39.25;26.67;;;16.60;99.90;;;;;;5090406;28;20054;-75
2023/09/16 00:42:53;;;;;;;36.83;27.05;;;16.50;99.90;;;;;;5087976;28;20031;-75
2023/09/16 00:45:19;;;;;;;38.42;27.55;;;16.50;99.90;;;;;;5085120;28;20028;-75
2023/09/16 00:47:45;;;;;;;39.47;28.58;;;16.50;99.90;;;;;;5070785;28;20028;-75
2023/09/16 00:50:17;;;;;;;36.97;26.73;;;16.50;99.90;;;;;;5083350;28;20017;-76
2023/09/16 00:52:56;;;;;;;41.03;27.55;;;16.50;99.90;;;;;;5082739;28;20024;-75
2023/09/16 00:55:22;;;;;;;36.15;27.10;;;16.50;99.90;;;;;;5084039;28;20104;-75
2023/09/16 00:57:50;;;;;;;35.55;27.40;;;16.50;99.90;;;;;;5084500;28;20095;-76
2023/09/16 01:00:16;;;;;;;39.58;29.05;;;16.50;99.90;;;;;;5082689;28;20048;-76
2023/09/16 01:02:44;;;;;;;41.08;29.02;;;16.50;99.90;;;;;;5083033;28;20020;-76
2023/09/16 01:05:15;;;;;;;38.63;28.08;;;16.50;99.90;;;;;;5071600;28;20024;-76
2023/09/16 01:07:41;;;;;;;37.70;27.65;;;16.60;99.90;;;;;;5088597;28;20428;-76
2023/09/16 01:10:11;;;;;;;42.95;29.58;;;16.50;99.90;;;;;;5075855;28;20052;-76
2023/09/16 01:12:38;;;;;;;39.30;28.13;;;16.50;99.90;;;;;;5085014;28;20034;-76
2023/09/16 01:15:06;;;;;;;42.30;29.48;;;16.50;99.90;;;;;;5088621;28;20026;-76
2023/09/16 01:17:36;;;;;;;41.28;28.88;;;16.50;99.90;;;;;;5083432;28;20490;-76
2023/09/16 01:20:06;;;;;;;39.58;28.55;;;16.50;99.90;;;;;;5092392;28;20364;-76
2023/09/16 01:22:35;;;;;;;38.97;28.35;;;16.40;99.90;;;;;;5094724;28;20364;-76
2023/09/16 01:25:06;;;;;;;40.55;29.02;;;16.40;99.90;;;;;;5094046;28;20091;-76
2023/09/16 01:27:32;;;;;;;38.70;28.70;;;16.40;99.90;;;;;;5094049;28;20027;-75
2023/09/16 01:30:02;;;;;;;42.08;29.23;;;16.40;99.90;;;;;;5093673;28;20024;-76
2023/09/16 01:32:34;;;;;;;38.47;28.15;;;16.40;99.90;;;;;;5080712;28;20052;-76
2023/09/16 01:35:04;;;;;;;37.10;27.95;;;16.30;99.90;;;;;;5089687;28;20047;-76
2023/09/16 01:37:31;;;;;;;39.30;28.50;;;16.30;99.90;;;;;;5080616;28;20075;-76
2023/09/16 01:39:57;;;;;;;37.28;26.80;;;16.30;99.90;;;;;;5087258;28;20020;-76
2023/09/16 01:42:26;;;;;;;36.63;26.77;;;16.30;99.90;;;;;;5086539;28;20051;-76
2023/09/16 01:44:55;;;;;;;40.33;27.73;;;16.30;99.90;;;;;;5090291;28;20016;-76
2023/09/16 01:47:21;;;;;;;34.75;25.95;;;16.20;99.90;;;;;;5084280;28;20483;-76
2023/09/16 01:49:47;;;;;;;38.28;27.85;;;16.20;99.90;;;;;;5092169;28;20527;-76
2023/09/16 01:52:13;;;;;;;37.80;27.73;;;16.30;99.90;;;;;;5074529;28;20099;-76
2023/09/16 01:54:38;;;;;;;39.08;28.00;;;16.30;99.90;;;;;;5084082;28;20100;-74
2023/09/16 01:57:04;;;;;;;35.75;26.85;;;16.20;99.90;;;;;;5078913;28;20024;-75
2023/09/16 01:59:30;;;;;;;36.83;28.25;;;16.20;99.90;;;;;;5072907;28;20044;-76
2023/09/16 02:01:55;;;;;;;40.13;28.27;;;16.20;99.90;;;;;;5074702;28;20479;-76
2023/09/16 02:04:21;;;;;;;40.97;29.65;;;16.20;99.90;;;;;;5091397;28;20023;-76
2023/09/16 02:06:47;;;;;;;39.97;28.73;;;16.10;99.90;;;;;;5086203;28;20020;-76
2023/09/16 02:09:13;;;;;;;39.40;29.13;;;16.10;99.90;;;;;;5079565;28;20012;-76
2023/09/16 02:11:39;;;;;;;42.85;29.50;;;16.10;99.90;;;;;;5080501;28;20100;-76
2023/09/16 02:14:05;;;;;;;40.17;29.67;;;16.00;99.90;;;;;;5073658;28;20135;-76
2023/09/16 02:16:33;;;;;;;43.17;30.05;;;16.10;99.90;;;;;;5073476;28;20253;-76
2023/09/16 02:18:59;;;;;;;39.75;29.55;;;16.00;99.90;;;;;;5083165;28;20023;-76
2023/09/16 02:21:26;;;;;;;46.78;32.20;;;16.00;99.90;;;;;;5090304;28;20017;-75
2023/09/16 02:23:51;;;;;;;44.55;30.80;;;16.00;99.90;;;;;;5083062;28;20016;-76
2023/09/16 02:26:17;;;;;;;46.20;32.08;;;16.00;99.90;;;;;;5077907;28;20034;-76
2023/09/16 02:28:43;;;;;;;50.47;33.38;;;16.00;99.90;;;;;;5092310;28;20024;-76
2023/09/16 02:31:09;;;;;;;43.63;31.20;;;16.00;99.90;;;;;;5081541;28;20021;-76
2023/09/16 02:33:36;;;;;;;47.60;32.00;;;15.90;99.90;;;;;;5076117;28;20020;-76
2023/09/16 02:36:01;;;;;;;45.22;30.67;;;15.90;99.90;;;;;;5092519;28;20028;-76
2023/09/16 02:38:27;;;;;;;46.53;32.50;;;15.90;99.90;;;;;;5089269;28;20085;-76
2023/09/16 02:40:53;;;;;;;48.85;33.67;;;15.90;99.90;;;;;;5092486;28;20028;-76
2023/09/16 02:43:18;;;;;;;43.67;33.08;;;15.90;99.90;;;;;;5091877;28;20493;-76
2023/09/16 02:45:44;;;;;;;47.25;32.05;;;15.80;99.90;;;;;;5084287;28;20427;-76
2023/09/16 02:48:10;;;;;;;45.22;33.40;;;15.90;99.90;;;;;;5092318;28;20027;-76
2023/09/16 02:50:39;;;;;;;46.10;33.28;;;15.80;99.90;;;;;;5084376;28;20028;-76
2023/09/16 02:53:06;;;;;;;46.22;32.92;;;15.80;99.90;;;;;;5090864;28;20092;-76
2023/09/16 02:55:32;;;;;;;44.65;33.15;;;15.80;99.90;;;;;;5091847;28;20046;-76
2023/09/16 02:58:01;;;;;;;43.15;32.60;;;15.80;99.90;;;;;;5091417;28;20012;-76
2023/09/16 03:00:26;;;;;;;45.90;33.78;;;15.90;99.90;;;;;;5077923;28;20503;-76
2023/09/16 03:02:52;;;;;;;50.47;33.97;;;15.90;99.90;;;;;;5087538;28;20032;-76
2023/09/16 03:05:18;;;;;;;48.55;33.75;;;15.80;99.90;;;;;;5081362;28;20024;-76
2023/09/16 03:07:44;;;;;;;49.05;34.20;;;15.80;99.90;;;;;;5075722;28;20415;-76
2023/09/16 03:10:10;;;;;;;48.70;33.92;;;15.90;99.90;;;;;;5084798;28;20020;-76
2023/09/16 03:12:36;;;;;;;45.53;33.17;;;15.90;99.90;;;;;;5072168;28;20283;-76
2023/09/16 03:15:02;;;;;;;46.33;34.60;;;15.80;99.90;;;;;;5087744;28;20015;-76
2023/09/16 03:17:29;;;;;;;47.17;33.47;;;15.80;99.90;;;;;;5090216;28;20054;-76
2023/09/16 03:19:55;;;;;;;47.72;34.35;;;15.90;99.90;;;;;;5091093;28;20028;-76
2023/09/16 03:22:20;;;;;;;48.22;34.15;;;15.80;99.90;;;;;;5090955;28;20047;-76
2023/09/16 03:24:46;;;;;;;45.92;33.95;;;15.90;99.90;;;;;;5090604;28;20028;-76
2023/09/16 03:27:11;;;;;;;46.88;34.25;;;15.90;99.90;;;;;;5080832;28;20379;-76
2023/09/16 03:29:37;;;;;;;44.20;32.63;;;15.80;99.90;;;;;;5091389;28;20012;-76
2023/09/16 03:32:03;;;;;;;44.78;32.63;;;15.80;99.90;;;;;;5082655;28;20073;-76
2023/09/16 03:34:28;;;;;;;49.25;33.58;;;15.90;99.90;;;;;;5083692;28;20016;-76
2023/09/16 03:36:54;;;;;;;45.08;32.70;;;15.90;99.90;;;;;;5081797;28;20032;-76
2023/09/16 03:39:20;;;;;;;48.50;33.28;;;15.80;99.90;;;;;;5079732;28;20020;-76
2023/09/16 03:41:46;;;;;;;46.30;32.15;;;15.90;99.90;;;;;;5079894;28;20351;-76
2023/09/16 03:44:12;;;;;;;44.10;32.25;;;15.80;99.90;;;;;;5084284;28;20360;-76
2023/09/16 03:46:41;;;;;;;44.92;31.42;;;15.80;99.90;;;;;;5086072;28;20027;-76
2023/09/16 03:49:07;;;;;;;43.53;31.90;;;15.80;99.90;;;;;;5091172;28;20073;-76
2023/09/16 03:51:37;;;;;;;42.40;31.08;;;15.80;99.90;;;;;;5080505;28;20024;-76
2023/09/16 03:54:04;;;;;;;42.97;30.80;;;15.80;99.90;;;;;;5077386;28;20266;-76
2023/09/16 03:56:30;;;;;;;41.25;30.67;;;15.80;99.90;;;;;;5087378;28;20530;-76
2023/09/16 03:58:56;;;;;;;42.47;31.05;;;15.80;99.90;;;;;;5086119;28;20054;-76
2023/09/16 04:01:22;;;;;;;41.40;29.90;;;15.80;99.90;;;;;;5090827;28;20012;-76
2023/09/16 04:03:47;;;;;;;46.20;32.22;;;15.80;99.90;;;;;;5080039;28;20027;-76
2023/09/16 04:06:14;;;;;;;41.80;31.02;;;15.80;99.90;;;;;;5075637;28;20038;-76
2023/09/16 04:08:40;;;;;;;42.67;30.00;;;15.70;99.90;;;;;;5090744;28;20026;-76
2023/09/16 04:11:06;;;;;;;40.47;30.38;;;15.70;99.90;;;;;;5089042;28;20025;-76
2023/09/16 04:13:32;;;;;;;43.45;31.35;;;15.70;99.90;;;;;;5090292;28;20058;-76
2023/09/16 04:15:57;;;;;;;42.72;31.33;;;15.70;99.90;;;;;;5090502;28;20024;-76
2023/09/16 04:18:23;;;;;;;44.00;30.73;;;15.70;99.90;;;;;;5087258;28;20047;-76
2023/09/16 04:20:50;;;;;;;40.63;29.60;;;15.60;99.90;;;;;;5090534;28;20070;-76
2023/09/16 04:23:16;;;;;;;42.38;31.20;;;15.60;99.90;;;;;;5074559;28;20028;-76
2023/09/16 04:25:41;;;;;;;40.17;29.77;;;15.60;99.90;;;;;;5088708;28;20034;-76
2023/09/16 04:28:07;;;;;;;41.63;30.52;;;15.60;99.90;;;;;;5090118;28;20023;-76
2023/09/16 04:30:39;;;;;;;42.25;29.40;;;15.50;99.90;;;;;;5088809;28;20046;-76
2023/09/16 04:33:04;;;;;;;40.70;28.70;;;15.60;99.90;;;;;;5089407;28;20043;-75
2023/09/16 04:35:31;;;;;;;40.47;29.65;;;15.50;99.90;;;;;;5083104;28;20273;-74
2023/09/16 04:37:56;;;;;;;38.97;28.80;;;15.50;99.90;;;;;;5070002;28;20110;-75
2023/09/16 04:40:22;;;;;;;41.78;28.70;;;15.50;99.90;;;;;;5089542;28;20016;-74
2023/09/16 04:42:48;;;;;;;41.67;28.90;;;15.50;99.90;;;;;;5081982;28;20091;-74
2023/09/16 04:45:15;;;;;;;40.72;28.65;;;15.40;99.90;;;;;;5087180;28;20016;-74
2023/09/16 04:47:41;;;;;;;37.05;28.33;;;15.40;99.90;;;;;;5079753;28;20023;-74
2023/09/16 04:50:07;;;;;;;34.90;26.98;;;15.40;99.90;;;;;;5091809;28;20129;-74
2023/09/16 04:52:33;;;;;;;34.50;26.60;;;15.40;99.90;;;;;;5090461;28;20903;-74
2023/09/16 04:54:58;;;;;;;38.63;28.05;;;15.40;99.90;;;;;;5094458;28;20025;-74
2023/09/16 04:57:25;;;;;;;36.78;27.45;;;15.40;99.90;;;;;;5092337;28;20097;-74
2023/09/16 04:59:51;;;;;;;36.92;25.92;;;15.30;99.90;;;;;;5082558;28;20135;-75
2023/09/16 05:02:17;;;;;;;39.08;26.52;;;15.30;99.90;;;;;;5087119;28;20087;-75
2023/09/16 05:04:42;;;;;;;38.88;26.83;;;15.30;99.90;;;;;;5087975;28;20017;-75
2023/09/16 05:07:08;;;;;;;40.42;25.48;;;15.30;99.90;;;;;;5086551;28;20081;-75
2023/09/16 05:09:34;;;;;;;38.08;25.35;;;15.30;99.90;;;;;;5093265;28;20471;-75
2023/09/16 05:12:00;;;;;;;38.83;26.20;;;15.30;99.90;;;;;;5081036;28;20020;-75
2023/09/16 05:14:26;;;;;;;36.95;25.13;;;15.30;99.90;;;;;;5091163;28;20085;-74
2023/09/16 05:16:51;;;;;;;35.72;24.95;;;15.30;99.90;;;;;;5090893;28;20619;-75
2023/09/16 05:19:17;;;;;;;35.08;25.25;;;15.30;99.90;;;;;;5090790;28;20058;-75
2023/09/16 05:21:42;;;;;;;38.00;25.90;;;15.30;99.90;;;;;;5087365;28;20020;-75
2023/09/16 05:24:08;;;;;;;36.47;25.15;;;15.30;99.90;;;;;;5090499;28;20042;-75
2023/09/16 05:26:34;;;;;;;35.50;25.20;;;15.30;99.90;;;;;;5082271;28;20020;-75
2023/09/16 05:28:59;;;;;;;36.45;26.15;;;15.30;99.90;;;;;;5094034;28;20095;-75
2023/09/16 05:31:26;;;;;;;35.85;25.55;;;15.30;99.90;;;;;;5092373;28;20051;-74
2023/09/16 05:33:51;;;;;;;35.42;25.70;;;15.30;99.90;;;;;;5092488;28;20065;-74
2023/09/16 05:36:18;;;;;;;33.38;24.73;;;15.30;99.90;;;;;;5093362;28;20032;-74
2023/09/16 05:38:43;;;;;;;35.70;24.75;;;15.30;99.90;;;;;;5093147;28;20103;-74
2023/09/16 05:41:09;;;;;;;35.33;25.63;;;15.30;99.90;;;;;;5093343;28;20099;-75
2023/09/16 05:43:34;;;;;;;33.22;24.00;;;15.30;99.90;;;;;;5093242;28;20016;-74
2023/09/16 05:46:01;;;;;;;33.60;24.02;;;15.30;99.90;;;;;;5085399;28;20071;-74
2023/09/16 05:48:28;;;;;;;34.08;25.20;;;15.30;99.90;;;;;;5086224;28;20375;-74
2023/09/16 05:50:56;;;;;;;34.22;24.88;;;15.30;99.90;;;;;;5092238;28;20391;-74
2023/09/16 05:53:22;;;;;;;32.97;24.05;;;15.30;99.90;;;;;;5093024;28;20459;-74
2023/09/16 05:55:47;;;;;;;34.80;24.58;;;15.30;99.90;;;;;;5088673;28;20084;-74
2023/09/16 05:58:13;;;;;;;32.13;24.15;;;15.30;99.90;;;;;;5093012;28;20074;-74
2023/09/16 06:00:39;;;;;;;31.48;23.42;;;15.30;99.90;;;;;;5089638;28;20036;-74
2023/09/16 06:03:04;;;;;;;35.40;24.70;;;15.30;99.90;;;;;;5091452;28;20054;-74
2023/09/16 06:05:30;;;;;;;34.58;23.77;;;15.30;99.90;;;;;;5080237;28;20024;-75
2023/09/16 06:07:56;;;;;;;33.90;23.35;;;15.30;99.90;;;;;;5080080;28;20542;-75
2023/09/16 06:10:21;;;;;;;34.33;24.23;;;15.40;99.90;;;;;;5090625;28;20371;-74
2023/09/16 06:12:47;;;;;;;32.60;24.08;;;15.40;99.90;;;;;;5092495;28;20020;-74
2023/09/16 06:15:13;;;;;;;34.85;23.23;;;15.40;99.90;;;;;;5093178;28;20033;-74
2023/09/16 06:17:38;;;;;;;32.40;23.60;;;15.50;99.90;;;;;;5091923;28;20032;-74
2023/09/16 06:20:06;;;;;;;33.15;23.60;;;15.40;99.90;;;;;;5089984;28;20486;-74
2023/09/16 06:22:32;;;;;;;30.80;23.13;;;15.50;99.90;;;;;;5090880;28;20028;-74
2023/09/16 06:24:58;;;;;;;33.80;24.05;;;15.50;99.90;;;;;;5087820;28;20027;-74
2023/09/16 06:27:23;;;;;;;34.70;24.92;;;15.50;99.90;;;;;;5080188;28;20039;-74
2023/09/16 06:29:50;;;;;;;34.03;24.95;;;15.50;99.90;;;;;;5086044;28;20024;-76
2023/09/16 06:32:16;;;;;;;33.88;23.48;;;15.60;99.90;;;;;;5078448;28;20012;-75
2023/09/16 06:34:42;;;;;;;35.97;24.40;;;15.60;99.90;;;;;;5081953;28;20035;-75
2023/09/16 06:37:07;;;;;;;36.08;24.63;;;15.60;99.90;;;;;;5077187;28;20067;-75
2023/09/16 06:39:33;;;;;;;34.38;23.85;;;15.70;99.90;;;;;;5079683;28;20107;-76
2023/09/16 06:41:59;;;;;;;37.28;25.85;;;15.70;99.90;;;;;;5090725;28;20027;-75
2023/09/16 06:44:25;;;;;;;40.10;26.98;;;15.80;99.90;;;;;;5078961;28;20052;-75
2023/09/16 06:46:50;;;;;;;38.05;27.13;;;15.80;99.90;;;;;;5073178;28;20479;-78
2023/09/16 06:49:17;;;;;;;33.67;25.67;;;15.90;99.90;;;;;;5075042;28;20021;-78
2023/09/16 06:51:43;;;;;;;40.22;27.23;;;15.90;99.90;;;;;;5082130;28;20678;-78
2023/09/16 06:54:08;;;;;;;38.70;26.35;;;16.00;99.90;;;;;;5084706;28;20021;-77
2023/09/16 06:56:34;;;;;;;39.50;28.33;;;16.00;99.90;;;;;;5073105;28;20024;-78
2023/09/16 06:59:01;;;;;;;36.85;26.48;;;16.00;99.90;;;;;;5077773;28;20509;-78
2023/09/16 07:01:27;;;;;;;37.88;27.80;;;16.10;99.90;;;;;;5075375;28;20024;-77
2023/09/16 07:03:52;;;;;;;41.28;27.38;;;16.10;99.90;;;;;;5084930;28;20024;-78
2023/09/16 07:06:18;;;;;;;35.78;26.33;;;16.20;99.90;;;;;;5079207;28;20043;-77
2023/09/16 07:08:44;;;;;;;37.20;28.30;;;16.20;99.90;;;;;;5083362;28;20429;-78
2023/09/16 07:11:11;;;;;;;37.45;26.35;;;16.30;99.90;;;;;;5084945;28;20020;-77
2023/09/16 07:13:38;;;;;;;38.00;27.35;;;16.30;99.90;;;;;;5087682;28;20047;-77
2023/09/16 07:16:04;;;;;;;38.63;27.58;;;16.40;99.90;;;;;;5085374;28;20032;-77
2023/09/16 07:18:30;;;;;;;37.38;28.35;;;16.40;99.90;;;;;;5086699;28;20028;-77
2023/09/16 07:20:56;;;;;;;41.17;29.88;;;16.50;99.90;;;;;;5091314;28;20029;-77
2023/09/16 07:23:22;;;;;;;40.97;29.33;;;16.50;99.90;;;;;;5090607;28;20028;-77
2023/09/16 07:25:55;;;;;;;41.45;28.45;;;16.50;99.90;;;;;;5091638;28;20032;-78
2023/09/16 07:28:21;;;;;;;44.40;30.08;;;16.60;99.90;;;;;;5084314;28;20360;-78
2023/09/16 07:30:47;;;;;;;39.67;28.83;;;16.70;99.90;;;;;;5082361;28;20044;-79
2023/09/16 07:33:13;;;;;;;41.65;30.35;;;16.70;99.90;;;;;;5092204;28;20439;-79
2023/09/16 07:35:38;;;;;;;44.20;31.45;;;16.80;99.90;;;;;;5091359;28;20020;-79
2023/09/16 07:38:04;;;;;;;46.03;30.58;;;16.90;99.90;;;;;;5091110;28;20020;-78
2023/09/16 07:40:32;;;;;;;39.55;29.83;;;17.00;99.90;;;;;;5080151;28;20013;-78
2023/09/16 07:42:58;;;;;;;39.22;29.88;;;17.10;99.90;;;;;;5085119;28;20020;-78
2023/09/16 07:45:24;;;;;;;39.42;29.02;;;17.10;99.90;;;;;;5078892;28;20028;-79
2023/09/16 07:47:50;;;;;;;45.58;30.25;;;17.30;99.90;;;;;;5091182;28;20028;-76
2023/09/16 07:50:15;;;;;;;39.97;29.02;;;17.30;99.90;;;;;;5085603;28;20092;-77
2023/09/16 07:52:42;;;;;;;41.95;29.70;;;17.40;99.90;;;;;;5080004;28;20047;-77
2023/09/16 07:55:08;;;;;;;40.67;29.35;;;17.60;99.90;;;;;;5091468;28;20423;-78
2023/09/16 07:57:33;;;;;;;43.35;29.52;;;17.70;99.90;;;;;;5080126;28;20067;-75
2023/09/16 07:59:59;;;;;;;42.03;27.67;;;17.80;99.90;;;;;;5086657;28;20036;-76
2023/09/16 08:02:25;;;;;;;36.60;25.70;;;17.90;99.90;;;;;;5090577;28;20016;-75
2023/09/16 08:04:50;;;;;;;36.30;27.23;;;18.00;99.90;;;;;;5088346;28;20074;-75
2023/09/16 08:07:16;;;;;;;33.88;26.08;;;18.20;99.90;;;;;;5089059;28;20028;-76
2023/09/16 08:09:42;;;;;;;37.42;27.15;;;18.30;99.90;;;;;;5084909;28;20020;-75
2023/09/16 08:12:07;;;;;;;37.28;25.23;;;18.50;99.90;;;;;;5084706;28;20024;-75
2023/09/16 08:14:33;;;;;;;36.72;26.75;;;18.70;99.90;;;;;;5088347;28;20508;-76
2023/09/16 08:17:03;;;;;;;38.53;26.58;;;18.90;99.90;;;;;;5090021;28;20081;-75
2023/09/16 08:19:32;;;;;;;33.05;26.13;;;19.00;99.90;;;;;;5088692;28;20016;-76
2023/09/16 08:21:58;;;;;;;34.13;26.23;;;19.20;99.90;;;;;;5082905;28;20025;-77
2023/09/16 08:24:24;;;;;;;32.95;24.17;;;19.40;99.90;;;;;;5087204;28;20173;-76
2023/09/16 08:26:49;;;;;;;33.20;25.23;;;19.50;99.90;;;;;;5077159;28;20031;-76
2023/09/16 08:29:15;;;;;;;29.60;24.02;;;19.80;99.90;;;;;;5088895;28;20020;-76
2023/09/16 08:31:41;;;;;;;37.45;25.42;;;19.90;99.90;;;;;;5083373;28;20024;-75
2023/09/16 08:34:06;;;;;;;34.30;24.58;;;20.10;99.90;;;;;;5086441;28;20023;-75
2023/09/16 08:36:32;;;;;;;33.45;23.85;;;20.20;99.90;;;;;;5075791;28;20039;-74
2023/09/16 08:38:58;;;;;;;32.30;24.40;;;20.50;99.90;;;;;;5069194;28;20024;-76
2023/09/16 08:41:38;;;;;;;33.53;24.17;;;20.60;99.90;;;;;;5073728;28;20118;-75
2023/09/16 08:44:05;;;;;;;31.98;24.08;;;20.70;99.90;;;;;;5085242;28;20113;-76
2023/09/16 08:46:34;;;;;;;32.80;24.15;;;20.80;99.90;;;;;;5083091;28;20028;-76
2023/09/16 08:49:03;;;;;;;33.00;23.75;;;20.90;99.90;;;;;;5071516;28;20029;-76
2023/09/16 08:51:32;;;;;;;34.55;24.83;;;21.00;99.90;;;;;;5071540;28;20020;-76
2023/09/16 08:53:59;;;;;;;34.35;23.98;;;21.10;99.90;;;;;;5072943;28;20100;-76
2023/09/16 08:56:26;;;;;;;31.95;22.80;;;21.10;99.90;;;;;;5080878;28;20032;-76
2023/09/16 08:58:53;;;;;;;29.63;21.98;;;21.20;99.90;;;;;;5069870;28;20067;-75
2023/09/16 09:01:19;;;;;;;30.10;21.98;;;21.30;99.90;;;;;;5078694;28;20097;-78
2023/09/16 09:03:45;;;;;;;27.13;21.77;;;21.40;99.90;;;;;;5085699;28;20027;-77
2023/09/16 09:06:12;;;;;;;28.10;21.15;;;21.50;99.90;;;;;;5084774;28;20559;-80
2023/09/16 09:08:38;;;;;;;29.55;21.67;;;21.60;99.90;;;;;;5084475;28;20027;-77
2023/09/16 09:11:04;;;;;;;28.77;21.27;;;21.70;99.90;;;;;;5081817;28;20028;-77
2023/09/16 09:13:30;;;;;;;28.55;19.95;;;21.70;99.90;;;;;;5085942;28;20063;-77
2023/09/16 09:16:00;;;;;;;28.02;20.52;;;21.80;99.90;;;;;;5075949;28;20064;-78
2023/09/16 09:18:28;;;;;;;29.58;20.65;;;21.90;99.90;;;;;;5084851;28;20080;-77
2023/09/16 09:20:54;;;;;;;27.92;21.00;;;22.00;99.90;;;;;;5078685;28;20025;-77
2023/09/16 09:23:20;;;;;;;30.10;19.35;;;22.10;99.90;;;;;;5082118;28;20031;-78
2023/09/16 09:25:45;;;;;;;26.92;19.42;;;22.20;99.90;;;;;;5072390;28;20503;-78
2023/09/16 09:28:13;;;;;;;24.48;19.25;;;22.30;99.90;;;;;;5073994;28;20032;-77
2023/09/16 09:30:41;;;;;;;24.17;17.70;;;22.50;99.90;;;;;;5087499;28;20061;-77
2023/09/16 09:33:18;;;;;;;23.67;17.27;;;22.60;99.90;;;;;;5073921;28;20029;-77
2023/09/16 09:35:43;;;;;;;25.50;17.45;;;22.90;99.90;;;;;;5080685;28;20043;-76
2023/09/16 09:38:09;;;;;;;23.23;15.63;;;23.10;99.90;;;;;;5085158;28;20151;-76
2023/09/16 09:40:35;;;;;;;21.38;16.00;;;23.30;99.90;;;;;;5091356;28;20371;-76
2023/09/16 09:43:01;;;;;;;22.40;15.48;;;23.50;99.90;;;;;;5090747;28;20312;-76
2023/09/16 09:45:28;;;;;;;23.13;16.73;;;23.60;99.90;;;;;;5092968;28;20486;-76
2023/09/16 09:47:55;;;;;;;21.20;16.77;;;23.80;99.90;;;;;;5093653;28;20045;-76
2023/09/16 09:50:22;;;;;;;18.20;13.68;;;23.90;99.90;;;;;;5089437;28;20032;-76
2023/09/16 09:52:52;;;;;;;18.30;13.18;;;24.00;99.90;;;;;;5074000;28;20028;-77
2023/09/16 09:55:19;;;;;;;21.27;15.60;;;24.20;99.90;;;;;;5086152;28;20107;-77
2023/09/16 09:57:46;;;;;;;16.52;12.95;;;24.30;99.90;;;;;;5083584;28;20040;-77
2023/09/16 10:00:16;;;;;;;15.43;10.95;;;24.50;99.90;;;;;;5083025;28;20098;-77
2023/09/16 10:02:42;;;;;;;15.73;10.45;;;24.60;99.90;;;;;;5082371;28;20036;-77
2023/09/16 10:05:16;;;;;;;12.85;9.32;;;24.70;99.90;;;;;;5082546;28;20024;-77
2023/09/16 10:07:43;;;;;;;14.43;9.60;;;24.80;99.90;;;;;;5087193;28;20024;-77
2023/09/16 10:10:25;;;;;;;15.27;9.60;;;24.80;99.90;;;;;;5081049;28;20502;-76
2023/09/16 10:12:53;;;;;;;13.82;9.38;;;24.90;99.90;;;;;;5091195;28;20016;-77
2023/09/16 10:15:29;;;;;;;14.57;9.70;;;25.00;99.90;;;;;;5093172;28;20021;-77
2023/09/16 10:17:56;;;;;;;16.73;10.00;;;25.00;99.90;;;;;;5085185;28;20467;-77
2023/09/16 10:20:22;;;;;;;15.20;9.07;;;25.10;99.90;;;;;;5090132;28;20020;-77
2023/09/16 10:22:49;;;;;;;13.98;8.77;;;25.20;99.90;;;;;;5090658;28;20035;-77
2023/09/16 10:25:17;;;;;;;12.63;8.85;;;25.20;99.90;;;;;;5092728;28;20122;-77
2023/09/16 10:28:06;;;;;;;13.35;8.20;;;25.30;99.90;;;;;;5079297;28;20544;-77
2023/09/16 10:30:34;;;;;;;11.07;7.53;;;25.50;99.90;;;;;;5082267;28;20205;-77
2023/09/16 10:33:05;;;;;;;11.75;8.00;;;25.50;99.90;;;;;;5093510;28;20379;-77
2023/09/16 10:35:37;;;;;;;11.63;8.13;;;25.60;99.90;;;;;;5092760;28;20012;-77
2023/09/16 10:38:04;;;;;;;12.10;7.82;;;25.60;99.90;;;;;;5087050;28;20035;-77
2023/09/16 10:40:31;;;;;;;9.93;7.20;;;25.60;99.90;;;;;;5086138;28;20024;-78
2023/09/16 10:42:58;;;;;;;10.68;6.78;;;25.70;99.90;;;;;;5076662;28;20468;-77
2023/09/16 10:45:25;;;;;;;10.82;6.40;;;25.80;99.90;;;;;;5084447;28;20028;-77
2023/09/16 10:47:52;;;;;;;12.75;8.27;;;25.90;99.90;;;;;;5085234;28;20027;-79
2023/09/16 10:50:20;;;;;;;12.50;8.23;;;25.90;99.90;;;;;;5085125;28;20028;-78
2023/09/16 10:52:53;;;;;;;11.45;7.20;;;26.00;99.90;;;;;;5086831;28;20052;-77
2023/09/16 10:55:34;;;;;;;9.70;6.75;;;26.00;99.90;;;;;;5093752;28;20648;-77
2023/09/16 10:58:09;;;;;;;10.82;6.75;;;26.10;99.90;;;;;;5076360;28;20032;-77
2023/09/16 11:00:37;;;;;;;;;;;26.20;99.90;;;;;;5077220;28;20024;-76
2023/09/16 11:03:05;;;;;;;8.95;6.25;;;26.20;99.90;;;;;;5085646;28;20024;-76
2023/09/16 11:05:35;;;;;;;7.72;5.50;;;26.30;99.90;;;;;;5089451;28;20059;-77
2023/09/16 11:08:01;;;;;;;10.55;6.88;;;26.40;99.90;;;;;;5093755;28;20028;-77
2023/09/16 11:10:27;;;;;;;8.88;6.70;;;26.50;99.90;;;;;;5077946;28;20112;-77
2023/09/16 11:12:55;;;;;;;8.15;5.90;;;26.60;99.90;;;;;;5078431;28;20081;-74
2023/09/16 11:15:20;;;;;;;8.25;6.35;;;26.60;99.90;;;;;;5087413;28;20076;-74
2023/09/16 11:17:47;;;;;;;10.85;6.50;;;26.70;99.90;;;;;;5087186;28;20055;-74
2023/09/16 11:20:30;;;;;;;12.60;7.93;;;26.70;99.90;;;;;;5089726;28;20023;-74
2023/09/16 11:22:57;;;;;;;12.10;9.27;;;26.70;99.70;;;;;;5090163;28;20090;-73
2023/09/16 11:25:22;;;;;;;10.88;7.43;;;26.70;99.60;;;;;;5078786;28;20020;-79
2023/09/16 11:27:50;;;;;;;11.95;7.70;;;26.80;99.50;;;;;;5097199;28;20047;-79
2023/09/16 11:30:16;;;;;;;10.75;7.00;;;26.80;99.40;;;;;;5079334;28;20025;-80
2023/09/16 11:33:04;;;;;;;10.85;8.35;;;26.80;99.30;;;;;;5093239;28;20024;-79
2023/09/16 11:35:31;;;;;;;9.77;7.10;;;26.80;99.20;;;;;;5079522;28;20020;-78
2023/09/16 11:37:58;;;;;;;9.75;7.78;;;26.70;99.30;;;;;;5073869;28;20033;-76
2023/09/16 11:40:37;;;;;;;12.80;9.20;;;26.70;99.30;;;;;;5078608;28;20032;-76
2023/09/16 11:43:04;;;;;;;15.15;9.02;;;26.70;99.20;;;;;;5085212;28;20020;-69
2023/09/16 11:45:32;;;;;;;12.20;8.32;;;26.70;99.20;;;;;;5085914;28;20023;-73
2023/09/16 11:48:01;;;;;;;14.60;9.18;;;26.80;99.40;;;;;;5080693;28;20029;-73
2023/09/16 11:50:27;;;;;;;13.60;9.35;;;26.90;99.60;;;;;;5087231;28;20023;-74
2023/09/16 11:52:53;;;;;;;13.13;7.95;;;27.00;99.40;;;;;;5091853;28;20383;-73
2023/09/16 11:55:19;;;;;;;11.60;8.43;;;27.00;99.10;;;;;;5090023;28;20016;-75
2023/09/16 11:57:47;;;;;;;13.55;9.10;;;27.10;98.50;;;;;;5082593;28;20117;-75
2023/09/16 12:00:14;;;;;;;13.93;8.32;;;27.10;98.50;;;;;;5085713;28;20384;-75
2023/09/16 12:02:43;;;;;;;11.82;7.93;;;27.10;98.40;;;;;;5078596;28;20514;-75
2023/09/16 12:05:14;;;;;;;11.38;7.10;;;27.10;98.40;;;;;;5092582;28;20031;-76
2023/09/16 12:07:39;;;;;;;10.68;7.43;;;27.20;98.50;;;;;;5087562;28;20109;-76
2023/09/16 12:10:06;;;;;;;11.20;6.75;;;27.30;97.90;;;;;;5076177;28;20138;-75
2023/09/16 12:12:32;;;;;;;8.18;5.65;;;27.20;97.40;;;;;;5079879;28;20021;-76
2023/09/16 12:15:02;;;;;;;7.85;6.30;;;27.10;97.20;;;;;;5078669;28;20028;-76
2023/09/16 12:17:28;;;;;;;10.35;6.80;;;27.10;96.90;;;;;;5089933;28;20066;-76
2023/09/16 12:19:55;;;;;;;10.45;6.30;;;27.00;96.80;;;;;;5088776;28;20013;-75
2023/09/16 12:22:22;;;;;;;9.20;5.50;;;26.90;96.90;;;;;;5089748;28;20052;-75
2023/09/16 12:24:51;;;;;;;10.20;5.95;;;27.00;97.00;;;;;;5090996;28;20024;-77
2023/09/16 12:27:17;;;;;;;9.93;5.88;;;27.00;96.30;;;;;;5077986;28;20032;-75
2023/09/16 12:29:43;;;;;;;8.30;5.85;;;27.00;96.40;;;;;;5077467;28;20027;-76